Time,TemperatureF,DewpointF,PressureIn,WindDirection,WindDirectionDegrees,WindSpeedMPH,WindSpeedGustMPH,Humidity,HourlyPrecipIn,Conditions,Clouds,dailyrainin,SoftwareType,DateUTC
2013-06-04 00:13:00,71.2,66.8,29.75,NNW,337,0.0,-999.0,86,-99.99,,,0.00,Acu-Link.com,2013-06-04 04:13:00,
2013-06-04 00:28:00,71.2,66.8,29.76,West,270,0.0,-999.0,86,-99.99,,,0.01,Acu-Link.com,2013-06-04 04:28:00,
2013-06-04 00:43:00,71.1,67.0,29.76,South,180,0.0,-999.0,87,-99.99,,,0.03,Acu-Link.com,2013-06-04 04:43:00,
2013-06-04 00:58:00,70.9,66.8,29.76,SSE,157,0.0,-999.0,87,-99.99,,,0.03,Acu-Link.com,2013-06-04 04:58:00,
2013-06-04 01:13:00,70.9,67.2,29.76,South,180,0.0,-999.0,88,-99.99,,,0.03,Acu-Link.com,2013-06-04 05:13:00,
2013-06-04 01:28:00,70.5,66.4,29.76,SSW,202,0.0,-999.0,87,-99.99,,,0.03,Acu-Link.com,2013-06-04 05:28:00,
2013-06-04 01:43:00,70.2,66.1,29.76,NNW,337,0.0,-999.0,87,-99.99,,,0.03,Acu-Link.com,2013-06-04 05:43:00,
2013-06-04 01:59:00,69.8,65.7,29.76,NW,315,0.0,-999.0,87,-99.99,,,0.03,Acu-Link.com,2013-06-04 05:59:00,
2013-06-04 02:14:00,69.6,65.6,29.76,South,180,0.0,-999.0,87,-99.99,,,0.03,Acu-Link.com,2013-06-04 06:14:00,
2013-06-04 02:29:00,69.3,65.3,29.76,West,270,0.0,-999.0,87,-99.99,,,0.03,Acu-Link.com,2013-06-04 06:29:00,
2013-06-04 02:44:00,68.7,64.7,29.76,West,270,0.0,-999.0,87,-99.99,,,0.03,Acu-Link.com,2013-06-04 06:44:00,
2013-06-04 02:59:00,68.4,64.0,29.76,West,270,0.0,-999.0,86,-99.99,,,0.03,Acu-Link.com,2013-06-04 06:59:00,
2013-06-04 03:14:00,68.2,64.2,29.76,West,270,0.0,-999.0,87,-99.99,,,0.03,Acu-Link.com,2013-06-04 07:14:00,
2013-06-04 03:29:00,67.8,63.8,29.76,West,270,0.0,-999.0,87,-99.99,,,0.03,Acu-Link.com,2013-06-04 07:29:00,
2013-06-04 03:44:00,67.5,63.5,29.75,WSW,247,0.0,-999.0,87,-99.99,,,0.03,Acu-Link.com,2013-06-04 07:44:00,
2013-06-04 03:59:00,67.1,63.1,29.76,West,270,0.0,-999.0,87,-99.99,,,0.03,Acu-Link.com,2013-06-04 07:59:00,
2013-06-04 04:17:00,66.9,62.9,29.76,WNW,292,0.0,-999.0,87,-99.99,,,0.03,Acu-Link.com,2013-06-04 08:17:00,
2013-06-04 04:32:00,66.7,62.7,29.76,West,270,0.0,-999.0,87,-99.99,,,0.03,Acu-Link.com,2013-06-04 08:32:00,
2013-06-04 04:47:00,66.6,62.6,29.76,West,270,0.0,-999.0,87,-99.99,,,0.03,Acu-Link.com,2013-06-04 08:47:00,
2013-06-04 05:02:00,66.7,63.0,29.76,WNW,292,0.0,-999.0,88,-99.99,,,0.03,Acu-Link.com,2013-06-04 09:02:00,
2013-06-04 05:18:00,67.3,63.6,29.77,WNW,292,0.0,-999.0,88,-99.99,,,0.03,Acu-Link.com,2013-06-04 09:18:00,
2013-06-04 05:33:00,67.6,64.9,29.78,SSE,157,0.0,-999.0,91,-99.99,,,0.03,Acu-Link.com,2013-06-04 09:33:00,
2013-06-04 05:48:00,67.6,64.6,29.78,SSE,157,0.0,-999.0,90,-99.99,,,0.03,Acu-Link.com,2013-06-04 09:48:00,
2013-06-04 06:03:00,67.5,64.1,29.78,ESE,112,0.0,-999.0,89,-99.99,,,0.03,Acu-Link.com,2013-06-04 10:03:00,
2013-06-04 06:18:00,67.1,63.7,29.79,ESE,112,0.0,-999.0,89,-99.99,,,0.03,Acu-Link.com,2013-06-04 10:18:00,
2013-06-04 06:33:00,66.7,63.4,29.80,NNW,337,0.0,-999.0,89,-99.99,,,0.03,Acu-Link.com,2013-06-04 10:33:00,
2013-06-04 06:48:00,66.7,63.4,29.80,ENE,67,0.0,-999.0,89,-99.99,,,0.03,Acu-Link.com,2013-06-04 10:48:00,
2013-06-04 07:03:00,66.7,63.4,29.81,NNW,337,0.0,-999.0,89,-99.99,,,0.03,Acu-Link.com,2013-06-04 11:03:00,
2013-06-04 07:19:00,67.1,63.7,29.83,NNW,337,0.0,-999.0,89,-99.99,,,0.03,Acu-Link.com,2013-06-04 11:19:00,
2013-06-04 07:34:00,67.8,66.9,29.82,West,270,0.0,-999.0,97,-99.99,,,0.03,Acu-Link.com,2013-06-04 11:34:00,
2013-06-04 07:49:00,68.5,67.9,29.82,SSE,157,0.0,-999.0,98,-99.99,,,0.03,Acu-Link.com,2013-06-04 11:49:00,
2013-06-04 08:04:00,69.6,67.5,29.83,ENE,67,0.0,-999.0,93,-99.99,,,0.03,Acu-Link.com,2013-06-04 12:04:00,
2013-06-04 08:19:00,69.6,65.9,29.83,SSW,202,1.7,-999.0,88,-99.99,,,0.03,Acu-Link.com,2013-06-04 12:19:00,
2013-06-04 08:34:00,70.2,66.1,29.83,East,90,1.1,-999.0,87,-99.99,,,0.03,Acu-Link.com,2013-06-04 12:34:00,
2013-06-04 08:50:00,70.9,66.5,29.85,East,90,0.0,-999.0,86,-99.99,,,0.03,Acu-Link.com,2013-06-04 12:50:00,
2013-06-04 09:05:00,72.0,66.5,29.85,ESE,112,1.7,-999.0,83,-99.99,,,0.03,Acu-Link.com,2013-06-04 13:05:00,
2013-06-04 09:20:00,74.1,66.8,29.86,ENE,67,0.0,-999.0,78,-99.99,,,0.03,Acu-Link.com,2013-06-04 13:20:00,
2013-06-04 09:35:00,76.3,66.6,29.86,West,270,1.1,-999.0,72,-99.99,,,0.03,Acu-Link.com,2013-06-04 13:35:00,
2013-06-04 09:50:00,79.9,67.9,29.86,NE,45,0.0,-999.0,67,-99.99,,,0.03,Acu-Link.com,2013-06-04 13:50:00,
2013-06-04 10:05:00,83.5,66.1,29.85,SE,135,1.7,-999.0,56,-99.99,,,0.03,Acu-Link.com,2013-06-04 14:05:00,
2013-06-04 10:20:00,85.8,65.5,29.85,ESE,112,0.0,-999.0,51,-99.99,,,0.03,Acu-Link.com,2013-06-04 14:20:00,
2013-06-04 10:35:00,87.4,64.7,29.85,SSW,202,1.1,-999.0,47,-99.99,,,0.03,Acu-Link.com,2013-06-04 14:35:00,
2013-06-04 10:50:00,79.0,65.8,29.85,South,180,1.7,-999.0,64,-99.99,,,0.04,Acu-Link.com,2013-06-04 14:50:00,
2013-06-04 11:06:00,80.4,64.7,29.86,ESE,112,1.7,-999.0,59,-99.99,,,0.04,Acu-Link.com,2013-06-04 15:06:00,
2013-06-04 11:21:00,80.4,66.2,29.86,ESE,112,1.7,-999.0,62,-99.99,,,0.04,Acu-Link.com,2013-06-04 15:21:00,
2013-06-04 11:36:00,80.8,65.6,29.85,ESE,112,1.7,-999.0,60,-99.99,,,0.04,Acu-Link.com,2013-06-04 15:36:00,
2013-06-04 11:51:00,82.0,66.2,29.85,ESE,112,1.1,-999.0,59,-99.99,,,0.04,Acu-Link.com,2013-06-04 15:51:00,
2013-06-04 12:06:00,83.5,65.6,29.85,ENE,67,0.0,-999.0,55,-99.99,,,0.04,Acu-Link.com,2013-06-04 16:06:00,
2013-06-04 12:21:00,85.3,65.1,29.85,ENE,67,1.7,-999.0,51,-99.99,,,0.04,Acu-Link.com,2013-06-04 16:21:00,
2013-06-04 12:36:00,83.8,64.8,29.85,SSW,202,1.7,-999.0,53,-99.99,,,0.04,Acu-Link.com,2013-06-04 16:36:00,
2013-06-04 12:51:00,81.7,66.0,29.85,SE,135,1.1,-999.0,59,-99.99,,,0.04,Acu-Link.com,2013-06-04 16:51:00,
2013-06-04 13:06:00,83.7,66.3,29.85,NE,45,1.7,-999.0,56,-99.99,,,0.04,Acu-Link.com,2013-06-04 17:06:00,
2013-06-04 13:22:00,83.1,66.3,29.84,ESE,112,1.7,-999.0,57,-99.99,,,0.04,Acu-Link.com,2013-06-04 17:22:00,
2013-06-04 13:37:00,85.6,68.1,29.84,SE,135,1.7,-999.0,56,-99.99,,,0.04,Acu-Link.com,2013-06-04 17:37:00,
2013-06-04 13:52:00,84.7,66.7,29.83,NNE,22,1.7,-999.0,55,-99.99,,,0.04,Acu-Link.com,2013-06-04 17:52:00,
2013-06-04 14:07:00,85.1,64.9,29.83,ESE,112,1.1,-999.0,51,-99.99,,,0.04,Acu-Link.com,2013-06-04 18:07:00,
2013-06-04 14:22:00,86.5,65.6,29.82,SSW,202,1.1,-999.0,50,-99.99,,,0.04,Acu-Link.com,2013-06-04 18:22:00,
2013-06-04 14:37:00,83.8,65.9,29.82,WNW,292,2.2,-999.0,55,-99.99,,,0.04,Acu-Link.com,2013-06-04 18:37:00,
2013-06-04 14:52:00,86.0,67.4,29.82,ESE,112,1.1,-999.0,54,-99.99,,,0.04,Acu-Link.com,2013-06-04 18:52:00,
2013-06-04 15:07:00,89.8,63.6,29.81,West,270,1.1,-999.0,42,-99.99,,,0.04,Acu-Link.com,2013-06-04 19:07:00,
2013-06-04 15:22:00,87.1,65.6,29.82,ESE,112,0.0,-999.0,49,-99.99,,,0.04,Acu-Link.com,2013-06-04 19:22:00,
2013-06-04 15:37:00,86.2,64.8,29.81,WSW,247,0.0,-999.0,49,-99.99,,,0.04,Acu-Link.com,2013-06-04 19:37:00,
2013-06-04 15:53:00,87.4,64.7,29.81,ENE,67,1.7,-999.0,47,-99.99,,,0.04,Acu-Link.com,2013-06-04 19:53:00,
2013-06-04 16:08:00,85.8,65.0,29.81,WSW,247,2.7,-999.0,50,-99.99,,,0.04,Acu-Link.com,2013-06-04 20:08:00,
2013-06-04 16:23:00,88.3,62.3,29.81,ESE,112,1.1,-999.0,42,-99.99,,,0.04,Acu-Link.com,2013-06-04 20:23:00,
2013-06-04 16:38:00,91.6,59.2,29.82,South,180,1.7,-999.0,34,-99.99,,,0.04,Acu-Link.com,2013-06-04 20:38:00,
2013-06-04 16:53:00,89.1,61.6,29.81,SSE,157,0.0,-999.0,40,-99.99,,,0.04,Acu-Link.com,2013-06-04 20:53:00,
2013-06-04 17:08:00,88.7,62.6,29.81,ESE,112,1.1,-999.0,42,-99.99,,,0.04,Acu-Link.com,2013-06-04 21:08:00,
2013-06-04 17:23:00,89.8,62.2,29.81,South,180,0.0,-999.0,40,-99.99,,,0.04,Acu-Link.com,2013-06-04 21:23:00,
2013-06-04 17:38:00,90.1,60.3,29.80,SSE,157,1.1,-999.0,37,-99.99,,,0.04,Acu-Link.com,2013-06-04 21:38:00,
2013-06-04 17:53:00,92.1,61.3,29.80,NNW,337,1.7,-999.0,36,-99.99,,,0.04,Acu-Link.com,2013-06-04 21:53:00,
2013-06-04 18:09:00,90.5,60.6,29.80,SE,135,1.1,-999.0,37,-99.99,,,0.04,Acu-Link.com,2013-06-04 22:09:00,
2013-06-04 18:24:00,88.7,63.3,29.80,South,180,0.0,-999.0,43,-99.99,,,0.04,Acu-Link.com,2013-06-04 22:24:00,
2013-06-04 18:39:00,89.8,62.2,29.80,NE,45,0.0,-999.0,40,-99.99,,,0.04,Acu-Link.com,2013-06-04 22:39:00,
2013-06-04 18:54:00,88.5,61.1,29.81,NNE,22,0.0,-999.0,40,-99.99,,,0.04,Acu-Link.com,2013-06-04 22:54:00,
2013-06-04 19:09:00,87.3,61.4,29.81,SE,135,0.0,-999.0,42,-99.99,,,0.04,Acu-Link.com,2013-06-04 23:09:00,
2013-06-04 19:24:00,86.7,62.8,29.81,NNE,22,2.2,-999.0,45,-99.99,,,0.04,Acu-Link.com,2013-06-04 23:24:00,
2013-06-04 19:39:00,83.8,64.8,29.82,NNE,22,0.0,-999.0,53,-99.99,,,0.04,Acu-Link.com,2013-06-04 23:39:00,
2013-06-04 19:54:00,81.3,65.6,29.83,NNE,22,0.0,-999.0,59,-99.99,,,0.04,Acu-Link.com,2013-06-04 23:54:00,
2013-06-04 20:09:00,80.1,64.9,29.83,East,90,0.0,-999.0,60,-99.99,,,0.04,Acu-Link.com,2013-06-05 00:09:00,
2013-06-04 20:25:00,78.6,66.3,29.83,SW,225,0.0,-999.0,66,-99.99,,,0.04,Acu-Link.com,2013-06-05 00:25:00,
2013-06-04 20:40:00,77.0,65.2,29.84,SW,225,0.0,-999.0,67,-99.99,,,0.04,Acu-Link.com,2013-06-05 00:40:00,
2013-06-04 20:55:00,75.6,65.5,29.84,ESE,112,0.0,-999.0,71,-99.99,,,0.04,Acu-Link.com,2013-06-05 00:55:00,
2013-06-04 21:10:00,74.5,65.3,29.84,ESE,112,0.0,-999.0,73,-99.99,,,0.04,Acu-Link.com,2013-06-05 01:10:00,
2013-06-04 21:25:00,73.9,65.5,29.84,NE,45,0.0,-999.0,75,-99.99,,,0.04,Acu-Link.com,2013-06-05 01:25:00,
2013-06-04 21:40:00,73.6,65.2,29.85,SE,135,0.0,-999.0,75,-99.99,,,0.04,Acu-Link.com,2013-06-05 01:40:00,
2013-06-04 21:55:00,73.4,65.4,29.85,East,90,0.0,-999.0,76,-99.99,,,0.04,Acu-Link.com,2013-06-05 01:55:00,
2013-06-04 22:10:00,73.2,65.2,29.86,ENE,67,0.0,-999.0,76,-99.99,,,0.04,Acu-Link.com,2013-06-05 02:10:00,
2013-06-04 22:25:00,72.7,65.1,29.85,South,180,0.0,-999.0,77,-99.99,,,0.04,Acu-Link.com,2013-06-05 02:25:00,
2013-06-04 22:41:00,72.5,64.9,29.86,SSW,202,0.0,-999.0,77,-99.99,,,0.04,Acu-Link.com,2013-06-05 02:41:00,
2013-06-04 22:56:00,72.3,64.7,29.86,ESE,112,0.0,-999.0,77,-99.99,,,0.04,Acu-Link.com,2013-06-05 02:56:00,
2013-06-04 23:11:00,72.0,64.8,29.87,SSE,157,0.0,-999.0,78,-99.99,,,0.04,Acu-Link.com,2013-06-05 03:11:00,
2013-06-04 23:26:00,72.0,64.8,29.87,SSE,157,0.0,-999.0,78,-99.99,,,0.04,Acu-Link.com,2013-06-05 03:26:00,
2013-06-04 23:41:00,72.1,64.5,29.87,SE,135,0.0,-999.0,77,-99.99,,,0.04,Acu-Link.com,2013-06-05 03:41:00,
2013-06-04 23:56:00,72.0,65.1,29.87,SE,135,0.0,-999.0,79,-99.99,,,0.04,Acu-Link.com,2013-06-05 03:56:00,